Wetterdaten: Woche 24.07.06 - 30.07.06 (KW30)
Datum Zeit Temperatur Luftfeuchte Luftdruck Niederschlag Windrichtung Wind
24.07.2006 00:00 17,4 C 95 % 1020 hPa 0,0 l/m N 0,0 km/h (0 Bft)
24.07.2006 01:00 16,8 C 96 % 1020 hPa 0,0 l/m N 0,0 km/h (0 Bft)
24.07.2006 02:00 16,3 C 98 % 1020 hPa 0,0 l/m N 0,0 km/h (0 Bft)
24.07.2006 03:00 16,3 C 100 % 1020 hPa 0,0 l/m W 3,5 km/h (1 Bft)
24.07.2006 04:00 16,2 C 100 % 1019 hPa 0,0 l/m N 0,0 km/h (0 Bft)
24.07.2006 05:00 15,8 C 100 % 1019 hPa 0,0 l/m N 0,0 km/h (0 Bft)
24.07.2006 06:00 15,5 C 100 % 1019 hPa 0,0 l/m N 0,0 km/h (0 Bft)
24.07.2006 07:00 16,7 C 100 % 1019 hPa 0,0 l/m N 0,0 km/h (0 Bft)
24.07.2006 08:00 19,2 C 97 % 1019 hPa 0,0 l/m N 3,9 km/h (1 Bft)
24.07.2006 09:00 21,7 C 81 % 1019 hPa 0,0 l/m N 9,4 km/h (2 Bft)
24.07.2006 10:00 25,2 C 55 % 1019 hPa 0,0 l/m O-NO 15,9 km/h (3 Bft)
24.07.2006 11:00 27,4 C 45 % 1019 hPa 0,0 l/m NO 18,0 km/h (3 Bft)
24.07.2006 12:00 28,7 C 42 % 1019 hPa 0,0 l/m N-NO 17,0 km/h (3 Bft)
24.07.2006 13:00 29,8 C 37 % 1019 hPa 0,0 l/m O 16,2 km/h (3 Bft)
24.07.2006 14:00 30,8 C 34 % 1019 hPa 0,0 l/m O-NO 17,4 km/h (3 Bft)
24.07.2006 15:00 31,2 C 33 % 1018 hPa 0,0 l/m NO 16,0 km/h (3 Bft)
24.07.2006 16:00 31,3 C 32 % 1018 hPa 0,0 l/m NO 15,5 km/h (3 Bft)
24.07.2006 17:00 31,4 C 32 % 1017 hPa 0,0 l/m O-NO 16,0 km/h (3 Bft)
24.07.2006 18:00 30,8 C 33 % 1017 hPa 0,0 l/m O-NO 15,4 km/h (3 Bft)
24.07.2006 19:00 29,3 C 35 % 1017 hPa 0,0 l/m O 14,8 km/h (3 Bft)
24.07.2006 20:00 27,5 C 42 % 1017 hPa 0,0 l/m O 4,5 km/h (1 Bft)
24.07.2006 21:00 24,4 C 53 % 1018 hPa 0,0 l/m N 0,0 km/h (0 Bft)
24.07.2006 22:00 22,4 C 60 % 1018 hPa 0,0 l/m W-NW 1,0 km/h (0 Bft)
24.07.2006 23:00 21,2 C 66 % 1018 hPa 0,0 l/m N 0,0 km/h (0 Bft)
25.07.2006 00:00 20,1 C 70 % 1018 hPa 0,0 l/m N 0,0 km/h (0 Bft)
25.07.2006 01:00 19,5 C 71 % 1018 hPa 0,0 l/m W-NW 4,6 km/h (1 Bft)
25.07.2006 02:00 19,0 C 73 % 1018 hPa 0,0 l/m NW 6,7 km/h (2 Bft)
25.07.2006 03:00 18,7 C 75 % 1018 hPa 0,0 l/m W-NW 8,5 km/h (2 Bft)
25.07.2006 04:00 18,3 C 77 % 1018 hPa 0,0 l/m W-NW 10,0 km/h (2 Bft)
25.07.2006 05:00 17,7 C 78 % 1018 hPa 0,0 l/m NW 1,9 km/h (1 Bft)
25.07.2006 06:00 17,2 C 83 % 1018 hPa 0,0 l/m NW 1,4 km/h (1 Bft)
25.07.2006 07:00 18,1 C 82 % 1018 hPa 0,0 l/m N 3,3 km/h (1 Bft)
25.07.2006 08:00 20,0 C 76 % 1018 hPa 0,0 l/m N 8,0 km/h (2 Bft)
25.07.2006 09:00 22,6 C 66 % 1018 hPa 0,0 l/m NO 10,6 km/h (2 Bft)
25.07.2006 10:00 25,6 C 55 % 1018 hPa 0,0 l/m O-NO 13,1 km/h (3 Bft)
25.07.2006 11:00 28,6 C 43 % 1018 hPa 0,0 l/m O-NO 16,7 km/h (3 Bft)
25.07.2006 12:00 30,2 C 36 % 1017 hPa 0,0 l/m N-NO 17,4 km/h (3 Bft)
25.07.2006 13:00 31,3 C 32 % 1017 hPa 0,0 l/m O-SO 16,8 km/h (3 Bft)
25.07.2006 14:00 32,2 C 30 % 1017 hPa 0,0 l/m O-SO 15,6 km/h (3 Bft)
25.07.2006 15:00 32,7 C 28 % 1017 hPa 0,0 l/m O 14,8 km/h (3 Bft)
25.07.2006 16:00 33,1 C 24 % 1016 hPa 0,0 l/m N-NO 15,9 km/h (3 Bft)
25.07.2006 17:00 33,1 C 24 % 1016 hPa 0,0 l/m N-NO 17,2 km/h (3 Bft)
25.07.2006 18:00 32,9 C 24 % 1016 hPa 0,0 l/m O-NO 15,0 km/h (3 Bft)
25.07.2006 19:00 31,1 C 29 % 1016 hPa 0,0 l/m NO 15,4 km/h (3 Bft)
25.07.2006 20:00 29,0 C 35 % 1016 hPa 0,0 l/m N-NO 9,8 km/h (2 Bft)
25.07.2006 21:00 25,9 C 45 % 1016 hPa 0,0 l/m N 0,0 km/h (0 Bft)
25.07.2006 22:00 23,2 C 52 % 1017 hPa 0,0 l/m N 0,0 km/h (0 Bft)
25.07.2006 23:00 22,1 C 55 % 1017 hPa 0,0 l/m W-NW 3,5 km/h (1 Bft)
26.07.2006 00:00 21,5 C 58 % 1017 hPa 0,0 l/m W-NW 4,1 km/h (1 Bft)
26.07.2006 01:00 20,9 C 61 % 1017 hPa 0,0 l/m W-NW 2,2 km/h (1 Bft)
26.07.2006 02:00 20,4 C 64 % 1017 hPa 0,0 l/m W-NW 9,1 km/h (2 Bft)
26.07.2006 03:00 19,8 C 67 % 1017 hPa 0,0 l/m W-NW 4,9 km/h (1 Bft)
26.07.2006 04:00 19,1 C 71 % 1017 hPa 0,0 l/m N 0,0 km/h (0 Bft)
26.07.2006 05:00 18,3 C 75 % 1017 hPa 0,0 l/m N 0,0 km/h (0 Bft)
26.07.2006 06:00 17,4 C 81 % 1017 hPa 0,0 l/m N 0,0 km/h (0 Bft)
26.07.2006 07:00 18,1 C 84 % 1017 hPa 0,0 l/m N 0,0 km/h (0 Bft)
26.07.2006 08:00 19,7 C 80 % 1018 hPa 0,0 l/m N 0,0 km/h (0 Bft)
26.07.2006 09:00 21,5 C 70 % 1018 hPa 0,0 l/m S-SO 0,8 km/h (0 Bft)
26.07.2006 10:00 23,9 C 60 % 1018 hPa 0,0 l/m O 1,1 km/h (0 Bft)
26.07.2006 11:00 27,2 C 47 % 1018 hPa 0,0 l/m O 5,9 km/h (2 Bft)
26.07.2006 12:00 30,1 C 35 % 1018 hPa 0,0 l/m O 7,5 km/h (2 Bft)
26.07.2006 13:00 31,4 C 30 % 1018 hPa 0,0 l/m W 4,1 km/h (1 Bft)
26.07.2006 14:00 32,3 C 27 % 1017 hPa 0,0 l/m W-SW 7,3 km/h (2 Bft)
26.07.2006 15:00 31,7 C 27 % 1017 hPa 0,0 l/m W-SW 5,3 km/h (1 Bft)
26.07.2006 16:00 31,7 C 31 % 1016 hPa 0,0 l/m W-SW 9,4 km/h (2 Bft)
26.07.2006 17:00 28,9 C 40 % 1016 hPa 0,0 l/m W-SW 10,8 km/h (2 Bft)
26.07.2006 18:00 26,4 C 47 % 1016 hPa 0,0 l/m W 15,0 km/h (3 Bft)
26.07.2006 19:00 26,8 C 50 % 1016 hPa 0,0 l/m W 7,3 km/h (2 Bft)
26.07.2006 20:00 25,7 C 61 % 1017 hPa 0,0 l/m N 0,0 km/h (0 Bft)
26.07.2006 21:00 23,7 C 68 % 1017 hPa 0,0 l/m N 0,0 km/h (0 Bft)
26.07.2006 22:00 22,2 C 74 % 1017 hPa 0,0 l/m N 0,0 km/h (0 Bft)
26.07.2006 23:00 21,3 C 78 % 1017 hPa 0,0 l/m O-NO 1,3 km/h (1 Bft)
27.07.2006 00:00 20,4 C 82 % 1017 hPa 0,0 l/m N 0,0 km/h (0 Bft)
27.07.2006 01:00 19,5 C 86 % 1017 hPa 0,0 l/m N 0,0 km/h (0 Bft)
27.07.2006 02:00 18,7 C 90 % 1017 hPa 0,0 l/m N 0,0 km/h (0 Bft)
27.07.2006 03:00 17,9 C 93 % 1017 hPa 0,0 l/m N 0,0 km/h (0 Bft)
27.07.2006 04:00 17,1 C 95 % 1017 hPa 0,0 l/m N 0,0 km/h (0 Bft)
27.07.2006 05:00 16,8 C 98 % 1017 hPa 0,0 l/m N 0,0 km/h (0 Bft)
27.07.2006 06:00 16,6 C 99 % 1017 hPa 0,0 l/m N 0,0 km/h (0 Bft)
27.07.2006 07:00 17,2 C 98 % 1017 hPa 0,0 l/m N 0,0 km/h (0 Bft)
27.07.2006 08:00 19,2 C 92 % 1017 hPa 0,0 l/m S 3,1 km/h (1 Bft)
27.07.2006 09:00 22,1 C 77 % 1017 hPa 0,0 l/m O-SO 12,3 km/h (3 Bft)
27.07.2006 10:00 25,4 C 64 % 1017 hPa 0,0 l/m O-SO 9,9 km/h (2 Bft)
27.07.2006 11:00 28,1 C 51 % 1017 hPa 0,0 l/m W 7,6 km/h (2 Bft)
27.07.2006 12:00 30,2 C 42 % 1017 hPa 0,0 l/m S 8,3 km/h (2 Bft)
27.07.2006 13:00 31,9 C 35 % 1016 hPa 0,0 l/m O 10,8 km/h (2 Bft)
27.07.2006 14:00 32,6 C 32 % 1016 hPa 0,0 l/m S-SW 10,5 km/h (2 Bft)
27.07.2006 15:00 31,2 C 34 % 1015 hPa 0,0 l/m W 10,3 km/h (2 Bft)
27.07.2006 16:00 26,2 C 47 % 1015 hPa 0,0 l/m W-NW 21,4 km/h (4 Bft)
27.07.2006 17:00 25,6 C 51 % 1015 hPa 0,0 l/m NW 16,3 km/h (3 Bft)
27.07.2006 18:00 28,4 C 40 % 1015 hPa 0,0 l/m N-NW 12,4 km/h (3 Bft)
27.07.2006 19:00 27,2 C 42 % 1015 hPa 0,0 l/m NW 7,1 km/h (2 Bft)
27.07.2006 20:00 25,1 C 51 % 1015 hPa 0,0 l/m N 0,0 km/h (0 Bft)
27.07.2006 21:00 22,6 C 62 % 1015 hPa 0,0 l/m N 0,0 km/h (0 Bft)
27.07.2006 22:00 21,2 C 67 % 1015 hPa 0,0 l/m N 0,0 km/h (0 Bft)
27.07.2006 23:00 20,4 C 72 % 1015 hPa 0,0 l/m N 0,0 km/h (0 Bft)
28.07.2006 00:00 20,5 C 70 % 1016 hPa 0,0 l/m W 16,1 km/h (3 Bft)
28.07.2006 01:00 21,5 C 62 % 1016 hPa 0,0 l/m W 26,8 km/h (4 Bft)
28.07.2006 02:00 20,6 C 65 % 1015 hPa 0,0 l/m S 15,6 km/h (3 Bft)
28.07.2006 03:00 19,8 C 71 % 1015 hPa 0,0 l/m S 11,2 km/h (2 Bft)
28.07.2006 04:00 19,4 C 78 % 1014 hPa 0,0 l/m S 7,1 km/h (2 Bft)
28.07.2006 05:00 19,0 C 82 % 1013 hPa 0,0 l/m N 0,0 km/h (0 Bft)
28.07.2006 06:00 18,7 C 85 % 1013 hPa 0,0 l/m N 0,0 km/h (0 Bft)
28.07.2006 07:00 19,0 C 85 % 1013 hPa 0,0 l/m N-NW 5,7 km/h (1 Bft)
28.07.2006 08:00 19,8 C 80 % 1014 hPa 0,0 l/m W 5,3 km/h (1 Bft)
28.07.2006 09:00 20,8 C 71 % 1014 hPa 0,0 l/m W 0,8 km/h (0 Bft)
28.07.2006 10:00 23,7 C 56 % 1014 hPa 0,0 l/m O 9,0 km/h (2 Bft)
28.07.2006 11:00 26,5 C 45 % 1013 hPa 0,0 l/m O 9,1 km/h (2 Bft)
28.07.2006 12:00 28,1 C 41 % 1013 hPa 0,0 l/m W 12,1 km/h (2 Bft)
28.07.2006 13:00 28,3 C 41 % 1013 hPa 0,0 l/m W-NW 15,3 km/h (3 Bft)
28.07.2006 14:00 28,2 C 43 % 1013 hPa 0,0 l/m NW 18,1 km/h (3 Bft)
28.07.2006 15:00 29,1 C 41 % 1012 hPa 0,0 l/m N 15,9 km/h (3 Bft)
28.07.2006 16:00 29,8 C 38 % 1011 hPa 0,0 l/m N-NO 8,5 km/h (2 Bft)
28.07.2006 17:00 28,3 C 42 % 1010 hPa 0,0 l/m O-NO 11,1 km/h (2 Bft)
28.07.2006 18:00 23,4 C 69 % 1011 hPa 25,0 l/m S 19,3 km/h (3 Bft)
28.07.2006 19:00 18,7 C 94 % 1011 hPa 7,0 l/m S 5,4 km/h (1 Bft)
28.07.2006 20:00 18,5 C 99 % 1011 hPa 1,0 l/m S-SO 4,2 km/h (1 Bft)
28.07.2006 21:00 18,4 C 100 % 1013 hPa 6,0 l/m O 11,2 km/h (2 Bft)
28.07.2006 22:00 17,7 C 100 % 1013 hPa 4,0 l/m S-SW 9,9 km/h (2 Bft)
28.07.2006 23:00 17,3 C 100 % 1012 hPa 2,0 l/m S 4,6 km/h (1 Bft)
29.07.2006 00:00 17,3 C 100 % 1011 hPa 0,0 l/m O 0,5 km/h (0 Bft)
29.07.2006 01:00 17,2 C 100 % 1011 hPa 0,0 l/m N 0,0 km/h (0 Bft)
29.07.2006 02:00 17,0 C 100 % 1011 hPa 0,0 l/m N 0,0 km/h (0 Bft)
29.07.2006 03:00 16,9 C 100 % 1011 hPa 0,0 l/m S 4,6 km/h (1 Bft)
29.07.2006 04:00 16,9 C 100 % 1010 hPa 0,0 l/m S 6,3 km/h (2 Bft)
29.07.2006 05:00 16,8 C 100 % 1010 hPa 1,0 l/m S 3,7 km/h (1 Bft)
29.07.2006 06:00 16,6 C 100 % 1011 hPa 0,0 l/m S 9,5 km/h (2 Bft)
29.07.2006 07:00 16,6 C 100 % 1011 hPa 0,0 l/m S-SW 10,2 km/h (2 Bft)
29.07.2006 08:00 16,8 C 100 % 1011 hPa 0,0 l/m S 6,7 km/h (2 Bft)
29.07.2006 09:00 17,1 C 100 % 1011 hPa 0,0 l/m S-SW 9,8 km/h (2 Bft)
29.07.2006 10:00 17,6 C 100 % 1011 hPa 0,0 l/m S 9,2 km/h (2 Bft)
29.07.2006 11:00 18,4 C 100 % 1012 hPa 0,0 l/m S-SW 14,6 km/h (3 Bft)
29.07.2006 12:00 18,7 C 99 % 1012 hPa 5,0 l/m S-SW 13,9 km/h (3 Bft)
29.07.2006 13:00 19,3 C 99 % 1012 hPa 0,0 l/m S 15,2 km/h (3 Bft)
29.07.2006 14:00 20,0 C 94 % 1012 hPa 0,0 l/m S 18,1 km/h (3 Bft)
29.07.2006 15:00 21,7 C 83 % 1012 hPa 0,0 l/m S-SW 18,2 km/h (3 Bft)
29.07.2006 16:00 22,0 C 78 % 1012 hPa 0,0 l/m S-SW 12,9 km/h (3 Bft)
29.07.2006 17:00 22,7 C 75 % 1011 hPa 0,0 l/m S-SW 13,7 km/h (3 Bft)
29.07.2006 18:00 23,6 C 67 % 1011 hPa 0,0 l/m S-SW 13,5 km/h (3 Bft)
29.07.2006 19:00 22,2 C 70 % 1012 hPa 0,0 l/m S-SW 9,6 km/h (2 Bft)
29.07.2006 20:00 20,6 C 81 % 1012 hPa 0,0 l/m S-SW 0,5 km/h (0 Bft)
29.07.2006 21:00 19,0 C 88 % 1013 hPa 0,0 l/m S-SW 2,6 km/h (1 Bft)
29.07.2006 22:00 18,0 C 93 % 1013 hPa 0,0 l/m N 0,0 km/h (0 Bft)
29.07.2006 23:00 17,7 C 97 % 1014 hPa 0,0 l/m N 0,0 km/h (0 Bft)
30.07.2006 00:00 17,4 C 98 % 1014 hPa 0,0 l/m N 0,0 km/h (0 Bft)
30.07.2006 01:00 16,6 C 99 % 1014 hPa 0,0 l/m N 0,0 km/h (0 Bft)
30.07.2006 02:00 16,1 C 100 % 1014 hPa 0,0 l/m N 0,0 km/h (0 Bft)
30.07.2006 03:00 15,7 C 100 % 1014 hPa 0,0 l/m N 0,0 km/h (0 Bft)
30.07.2006 04:00 15,3 C 100 % 1014 hPa 0,0 l/m N 0,0 km/h (0 Bft)
30.07.2006 05:00 15,0 C 100 % 1014 hPa 0,0 l/m N 0,0 km/h (0 Bft)
30.07.2006 06:00 14,8 C 100 % 1014 hPa 0,0 l/m N 0,0 km/h (0 Bft)
30.07.2006 07:00 15,5 C 100 % 1015 hPa 0,0 l/m N 0,0 km/h (0 Bft)
30.07.2006 08:00 17,0 C 100 % 1015 hPa 0,0 l/m S 1,5 km/h (1 Bft)
30.07.2006 09:00 19,3 C 94 % 1015 hPa 0,0 l/m O 7,8 km/h (2 Bft)
30.07.2006 10:00 22,1 C 77 % 1015 hPa 0,0 l/m O 8,9 km/h (2 Bft)
30.07.2006 11:00 24,7 C 60 % 1015 hPa 0,0 l/m S 10,3 km/h (2 Bft)
30.07.2006 12:00 26,3 C 51 % 1015 hPa 0,0 l/m O-SO 12,8 km/h (3 Bft)
30.07.2006 13:00 27,4 C 45 % 1014 hPa 0,0 l/m S-SO 13,1 km/h (3 Bft)
30.07.2006 14:00 28,1 C 42 % 1014 hPa 0,0 l/m S 11,8 km/h (2 Bft)
30.07.2006 15:00 29,1 C 37 % 1014 hPa 0,0 l/m O 11,3 km/h (2 Bft)
30.07.2006 16:00 29,6 C 35 % 1014 hPa 0,0 l/m S 9,6 km/h (2 Bft)
30.07.2006 17:00 28,9 C 37 % 1013 hPa 0,0 l/m S-SW 7,4 km/h (2 Bft)
30.07.2006 18:00 28,3 C 42 % 1013 hPa 0,0 l/m W 7,2 km/h (2 Bft)
30.07.2006 19:00 26,1 C 52 % 1014 hPa 0,0 l/m W 8,2 km/h (2 Bft)
30.07.2006 20:00 23,8 C 65 % 1014 hPa 0,0 l/m N 0,0 km/h (0 Bft)
30.07.2006 21:00 22,4 C 69 % 1015 hPa 0,0 l/m NW 5,0 km/h (1 Bft)
30.07.2006 22:00 21,5 C 72 % 1015 hPa 0,0 l/m N 0,1 km/h (0 Bft)
30.07.2006 23:00 20,6 C 77 % 1015 hPa 0,0 l/m N 0,0 km/h (0 Bft)
Min-Datum _ 30.07.06 26.07.06 28.07.06 - - 24.07.06
_ Min-Zeit 06:17 14:59 16:48 - - 00:00
Minimum _ 14,8 C 22 % 1010 hPa - - 0,0 km/h (0 Bft)
Max-Datum _ 25.07.06 24.07.06 24.07.06 28.07.06 - 28.07.06
_ Max-Zeit 17:12 03:05 00:00 18:44 - 01:01
Maximum _ 33,3 C 100 % 1020 hPa 25,0 l/m - 44,9 km/h
W (6 Bft)
Durchschnitt _ 22,7 C 68 % 1016 hPa #51,0 l/m S 7,1 km/h (2 Bft)

Durchschnitt Minimum Temp.22,1 C
Durchschnitt Maximum Temp.23,3 C